createdAt,value
2017-10-25T00:00:36.297Z,16.26
2017-10-25T00:01:36.281Z,16.24
2017-10-25T00:02:36.274Z,16.16
2017-10-25T00:03:45.978Z,16.23
2017-10-25T00:04:44.044Z,16.20
2017-10-25T00:05:36.220Z,16.17
2017-10-25T00:06:36.252Z,16.26
2017-10-25T00:07:36.191Z,16.26
2017-10-25T00:08:36.173Z,16.23
2017-10-25T00:09:36.156Z,16.20
2017-10-25T00:10:36.141Z,16.24
2017-10-25T00:11:36.168Z,16.23
2017-10-25T00:12:36.111Z,16.17
2017-10-25T00:13:36.093Z,16.15
2017-10-25T00:14:36.078Z,16.21
2017-10-25T00:15:36.064Z,16.21
2017-10-25T00:16:36.092Z,16.23
2017-10-25T00:17:36.032Z,16.28
2017-10-25T00:18:36.015Z,16.23
2017-10-25T00:19:36.046Z,16.21
2017-10-25T00:20:35.987Z,16.24
2017-10-25T00:21:35.971Z,16.24
2017-10-25T00:22:35.967Z,16.29
2017-10-25T00:23:35.946Z,16.24
2017-10-25T00:24:35.967Z,16.10
2017-10-25T00:25:35.911Z,16.17
2017-10-25T00:26:35.895Z,16.23
2017-10-25T00:27:35.881Z,16.13
2017-10-25T00:28:35.868Z,16.17
2017-10-25T00:29:35.896Z,16.17
2017-10-25T00:30:35.834Z,16.15
2017-10-25T00:31:35.824Z,16.20
2017-10-25T00:32:35.804Z,16.21
2017-10-25T00:33:35.788Z,16.17
2017-10-25T00:34:35.816Z,16.13
2017-10-25T00:35:35.758Z,16.10
2017-10-25T00:36:35.741Z,16.23
2017-10-25T00:37:35.728Z,16.20
2017-10-25T00:38:35.713Z,16.21
2017-10-25T00:39:35.742Z,16.17
2017-10-25T00:40:35.679Z,16.16
2017-10-25T00:41:35.665Z,16.24
2017-10-25T00:42:35.690Z,16.08
2017-10-25T00:43:35.636Z,16.17
2017-10-25T00:44:35.678Z,16.13
2017-10-25T00:45:35.616Z,16.23
2017-10-25T00:46:35.590Z,16.15
2017-10-25T00:47:35.575Z,16.20
2017-10-25T00:48:35.562Z,16.16
2017-10-25T00:49:35.582Z,16.13
2017-10-25T00:50:35.530Z,16.16
2017-10-25T00:51:35.531Z,16.20
2017-10-25T00:52:35.500Z,16.15
2017-10-25T00:53:35.518Z,16.15
2017-10-25T00:54:35.503Z,16.15
2017-10-25T00:55:35.452Z,16.13
2017-10-25T00:56:35.436Z,16.08
2017-10-25T00:57:35.422Z,16.17
2017-10-25T00:58:35.408Z,16.17
2017-10-25T00:59:35.444Z,16.20
2017-10-25T01:00:35.386Z,16.21
2017-10-25T01:01:35.365Z,16.08
2017-10-25T01:02:35.387Z,16.09
2017-10-25T01:03:35.340Z,16.09
2017-10-25T01:04:35.315Z,16.15
2017-10-25T01:05:35.314Z,16.08
2017-10-25T01:06:35.284Z,16.08
2017-10-25T01:07:35.327Z,16.10
2017-10-25T01:08:35.258Z,16.08
2017-10-25T01:09:35.242Z,16.12
2017-10-25T01:10:35.222Z,16.02
2017-10-25T01:11:35.224Z,16.04
2017-10-25T01:12:35.230Z,16.05
2017-10-25T01:13:35.176Z,16.08
2017-10-25T01:14:35.199Z,16.04
2017-10-25T01:15:35.148Z,16.02
2017-10-25T01:16:35.132Z,16.08
2017-10-25T01:17:35.117Z,16.08
2017-10-25T01:18:35.104Z,16.01
2017-10-25T01:19:35.121Z,16.05
2017-10-25T01:20:35.079Z,16.09
2017-10-25T01:21:35.055Z,16.05
2017-10-25T01:22:35.040Z,16.08
2017-10-25T01:23:35.061Z,16.16
2017-10-25T01:24:35.035Z,16.05
2017-10-25T01:25:35.000Z,16.05
2017-10-25T01:26:34.979Z,16.02
2017-10-25T01:27:34.964Z,16.09
2017-10-25T01:28:34.992Z,16.08
2017-10-25T01:29:34.934Z,16.08
2017-10-25T01:30:34.920Z,16.04
2017-10-25T01:31:34.903Z,16.04
2017-10-25T01:32:34.893Z,15.95
2017-10-25T01:33:34.905Z,16.05
2017-10-25T01:34:34.855Z,16.02
2017-10-25T01:35:34.854Z,16.01
2017-10-25T01:36:34.868Z,16.01
2017-10-25T01:37:34.807Z,16.00
2017-10-25T01:38:34.793Z,15.95
2017-10-25T01:39:34.783Z,16.02
2017-10-25T01:40:34.763Z,16.02
2017-10-25T01:41:34.781Z,16.09
2017-10-25T01:42:34.733Z,16.05
2017-10-25T01:43:34.731Z,16.00
2017-10-25T01:44:34.702Z,16.04
2017-10-25T01:45:34.700Z,16.01
2017-10-25T01:46:42.605Z,16.04
2017-10-25T01:47:34.696Z,16.02
2017-10-25T01:48:34.640Z,16.08
2017-10-25T01:49:34.665Z,16.13
2017-10-25T01:50:34.611Z,16.12
2017-10-25T01:51:34.600Z,16.10
2017-10-25T01:52:34.580Z,16.04
2017-10-25T01:53:34.581Z,16.02
2017-10-25T01:54:34.597Z,16.01
2017-10-25T01:55:34.543Z,15.98
2017-10-25T01:56:34.513Z,16.04
2017-10-25T01:57:34.499Z,16.01
2017-10-25T01:58:34.485Z,16.02
2017-10-25T01:59:34.512Z,16.08
2017-10-25T02:00:34.471Z,16.04
2017-10-25T02:01:34.442Z,16.05
2017-10-25T02:02:34.426Z,16.04
2017-10-25T02:03:34.408Z,16.05
2017-10-25T02:04:34.426Z,16.04
2017-10-25T02:05:34.377Z,16.01
2017-10-25T02:06:34.380Z,16.04
2017-10-25T02:07:34.347Z,16.08
2017-10-25T02:08:34.366Z,16.02
2017-10-25T02:09:34.323Z,16.04
2017-10-25T02:10:34.303Z,16.05
2017-10-25T02:11:34.288Z,15.92
2017-10-25T02:12:34.304Z,15.97
2017-10-25T02:13:34.262Z,16.04
2017-10-25T02:14:34.274Z,15.98
2017-10-25T02:15:34.223Z,16.00
2017-10-25T02:16:34.207Z,16.02
2017-10-25T02:17:34.194Z,16.02
2017-10-25T02:18:34.180Z,16.04
2017-10-25T02:19:34.195Z,16.05
2017-10-25T02:20:34.146Z,16.00
2017-10-25T02:21:34.143Z,15.98
2017-10-25T02:22:34.116Z,15.94
2017-10-25T02:23:34.150Z,15.97
2017-10-25T02:24:34.089Z,15.92
2017-10-25T02:25:34.068Z,15.94
2017-10-25T02:26:34.057Z,15.98
2017-10-25T02:27:34.054Z,15.88
2017-10-25T02:28:34.068Z,15.97
2017-10-25T02:29:34.007Z,15.97
2017-10-25T02:30:33.997Z,15.95
2017-10-25T02:31:33.977Z,15.94
2017-10-25T02:32:33.965Z,15.97
2017-10-25T02:33:33.981Z,15.92
2017-10-25T02:34:33.936Z,15.95
2017-10-25T02:35:33.924Z,15.94
2017-10-25T02:36:33.899Z,15.88
2017-10-25T02:37:41.667Z,15.91
2017-10-25T02:38:33.873Z,15.91
2017-10-25T02:39:33.854Z,15.91
2017-10-25T02:40:33.844Z,15.95
2017-10-25T02:41:33.830Z,15.90
2017-10-25T02:42:33.805Z,15.95
2017-10-25T02:43:33.826Z,15.98
2017-10-25T02:44:33.778Z,15.88
2017-10-25T02:45:33.767Z,16.00
2017-10-25T02:46:33.747Z,15.95
2017-10-25T02:47:33.732Z,15.94
2017-10-25T02:48:33.748Z,16.00
2017-10-25T02:49:33.707Z,15.94
2017-10-25T02:50:33.688Z,15.97
2017-10-25T02:51:33.670Z,15.98
2017-10-25T02:52:33.654Z,15.90
2017-10-25T02:53:33.673Z,15.97
2017-10-25T02:54:33.627Z,15.88
2017-10-25T02:55:33.607Z,15.92
2017-10-25T02:56:33.590Z,15.91
2017-10-25T02:57:33.578Z,15.94
2017-10-25T02:58:33.605Z,15.91
2017-10-25T02:59:33.581Z,15.90
2017-10-25T03:00:33.571Z,15.88
2017-10-25T03:01:33.559Z,15.90
2017-10-25T03:02:33.503Z,15.83
2017-10-25T03:03:33.488Z,15.94
2017-10-25T03:04:33.470Z,15.97
2017-10-25T03:05:33.456Z,15.94
2017-10-25T03:06:33.473Z,15.83
2017-10-25T03:07:33.427Z,15.84
2017-10-25T03:08:33.411Z,15.90
2017-10-25T03:09:33.391Z,15.91
2017-10-25T03:10:33.416Z,15.88
2017-10-25T03:11:33.378Z,15.88
2017-10-25T03:12:33.388Z,15.86
2017-10-25T03:13:33.335Z,15.84
2017-10-25T03:14:33.320Z,15.86
2017-10-25T03:15:33.305Z,15.88
2017-10-25T03:16:33.318Z,15.91
2017-10-25T03:17:33.273Z,15.84
2017-10-25T03:18:33.294Z,15.88
2017-10-25T03:19:33.239Z,15.86
2017-10-25T03:20:33.224Z,15.86
2017-10-25T03:21:33.254Z,15.92
2017-10-25T03:22:33.192Z,15.94
2017-10-25T03:23:33.180Z,15.94
2017-10-25T03:24:33.160Z,15.88
2017-10-25T03:25:33.145Z,15.95
2017-10-25T03:26:33.164Z,15.88
2017-10-25T03:27:33.166Z,15.94
2017-10-25T03:28:42.659Z,15.95
2017-10-25T03:29:43.200Z,15.92
2017-10-25T03:30:33.078Z,15.95
2017-10-25T03:31:33.060Z,15.97
2017-10-25T03:32:33.090Z,15.97
2017-10-25T03:33:33.020Z,15.95
2017-10-25T03:34:33.008Z,15.92
2017-10-25T03:35:32.994Z,15.98
2017-10-25T03:36:32.983Z,15.92
2017-10-25T03:37:32.997Z,16.00
2017-10-25T03:38:32.990Z,15.95
2017-10-25T03:39:32.933Z,15.98
2017-10-25T03:40:32.916Z,16.00
2017-10-25T03:41:32.899Z,15.95
2017-10-25T03:42:32.888Z,15.95
2017-10-25T03:43:32.917Z,15.98
2017-10-25T03:44:32.852Z,15.95
2017-10-25T03:45:32.844Z,15.98
2017-10-25T03:46:32.821Z,16.00
2017-10-25T03:47:32.818Z,16.09
2017-10-25T03:48:32.851Z,16.09
2017-10-25T03:49:32.773Z,16.05
2017-10-25T03:50:32.758Z,16.08
2017-10-25T03:51:32.746Z,16.08
2017-10-25T03:52:32.730Z,16.12
2017-10-25T03:53:40.774Z,16.08
2017-10-25T03:54:42.256Z,16.09
2017-10-25T03:55:32.686Z,16.08
2017-10-25T03:56:32.678Z,16.12
2017-10-25T03:57:32.721Z,16.10
2017-10-25T03:58:32.629Z,16.13
2017-10-25T03:59:32.618Z,16.15
2017-10-25T04:00:32.604Z,16.08
2017-10-25T04:01:32.593Z,16.12
2017-10-25T04:02:32.607Z,16.12
2017-10-25T04:03:32.556Z,16.17
2017-10-25T04:04:32.548Z,16.10
2017-10-25T04:05:32.520Z,16.16
2017-10-25T04:06:32.550Z,16.10
2017-10-25T04:07:32.493Z,16.12
2017-10-25T04:08:32.476Z,16.08
2017-10-25T04:09:32.462Z,16.15
2017-10-25T04:10:32.454Z,16.12
2017-10-25T04:11:32.487Z,16.09
2017-10-25T04:12:32.414Z,16.12
2017-10-25T04:13:32.398Z,16.09
2017-10-25T04:14:32.395Z,16.10
2017-10-25T04:15:32.374Z,16.15
2017-10-25T04:16:32.387Z,16.12
2017-10-25T04:17:32.366Z,16.16
2017-10-25T04:18:32.346Z,16.15
2017-10-25T04:19:32.359Z,16.17
2017-10-25T04:20:32.310Z,16.20
2017-10-25T04:21:33.186Z,16.10
2017-10-25T04:22:32.267Z,16.10
2017-10-25T04:23:32.294Z,16.10
2017-10-25T04:24:42.144Z,16.20
2017-10-25T04:25:32.222Z,16.10
2017-10-25T04:26:42.324Z,16.09
2017-10-25T04:27:32.188Z,16.15
2017-10-25T04:28:32.195Z,16.10
2017-10-25T04:29:32.154Z,16.13
2017-10-25T04:30:32.169Z,16.15
2017-10-25T04:31:32.148Z,16.05
2017-10-25T04:32:32.359Z,16.09
2017-10-25T04:33:32.091Z,16.09
2017-10-25T04:34:32.079Z,16.04
2017-10-25T04:35:32.074Z,16.09
2017-10-25T04:36:32.095Z,16.00
2017-10-25T04:37:32.027Z,16.05
2017-10-25T04:38:32.018Z,16.05
2017-10-25T04:39:31.997Z,16.12
2017-10-25T04:40:32.008Z,16.12
2017-10-25T04:41:32.043Z,16.12
2017-10-25T04:42:37.760Z,16.10
2017-10-25T04:43:32.758Z,16.08
2017-10-25T04:44:31.925Z,16.09
2017-10-25T04:45:31.934Z,16.12
2017-10-25T04:46:31.892Z,16.12
2017-10-25T04:47:31.873Z,16.17
2017-10-25T04:48:31.858Z,16.16
2017-10-25T04:49:31.854Z,16.13
2017-10-25T04:50:31.871Z,16.23
2017-10-25T04:51:31.815Z,16.21
2017-10-25T04:52:31.795Z,16.12
2017-10-25T04:53:31.783Z,16.21
2017-10-25T04:54:31.767Z,16.20
2017-10-25T04:55:31.792Z,16.12
2017-10-25T04:56:31.769Z,16.12
2017-10-25T04:57:31.722Z,16.13
2017-10-25T04:58:31.711Z,16.15
2017-10-25T04:59:31.689Z,16.15
2017-10-25T05:00:31.671Z,16.09
2017-10-25T05:01:31.687Z,16.15
2017-10-25T05:02:31.647Z,16.09
2017-10-25T05:03:31.660Z,16.13
2017-10-25T05:04:31.616Z,16.10
2017-10-25T05:05:31.598Z,16.13
2017-10-25T05:06:31.583Z,16.20
2017-10-25T05:07:31.568Z,16.13
2017-10-25T05:08:31.575Z,16.12
2017-10-25T05:09:31.535Z,16.17
2017-10-25T05:10:31.521Z,16.15
2017-10-25T05:11:31.512Z,16.16
2017-10-25T05:12:31.494Z,16.17
2017-10-25T05:13:31.506Z,16.09
2017-10-25T05:14:31.472Z,16.16
2017-10-25T05:15:31.446Z,16.13
2017-10-25T05:16:31.428Z,16.16
2017-10-25T05:17:31.417Z,16.13
2017-10-25T05:18:31.447Z,16.16
2017-10-25T05:19:31.387Z,16.12
2017-10-25T05:20:31.366Z,16.17
2017-10-25T05:21:31.354Z,16.09
2017-10-25T05:22:31.348Z,16.10
2017-10-25T05:23:31.365Z,16.12
2017-10-25T05:24:31.307Z,16.15
2017-10-25T05:25:31.294Z,16.13
2017-10-25T05:26:31.275Z,16.09
2017-10-25T05:27:31.270Z,16.10
2017-10-25T05:28:31.305Z,16.17
2017-10-25T05:29:31.229Z,16.12
2017-10-25T05:30:31.217Z,16.09
2017-10-25T05:31:31.207Z,16.21
2017-10-25T05:32:31.186Z,16.17
2017-10-25T05:33:31.205Z,16.09
2017-10-25T05:34:31.186Z,16.16
2017-10-25T05:35:31.138Z,16.13
2017-10-25T05:36:40.873Z,16.12
2017-10-25T05:37:31.108Z,16.13
2017-10-25T05:38:31.094Z,16.17
2017-10-25T05:39:31.107Z,16.12
2017-10-25T05:40:31.061Z,16.05
2017-10-25T05:41:31.070Z,16.09
2017-10-25T05:42:31.071Z,16.20
2017-10-25T05:43:31.017Z,16.15
2017-10-25T05:44:31.040Z,16.16
2017-10-25T05:45:30.988Z,16.10
2017-10-25T05:46:31.012Z,16.17
2017-10-25T05:47:31.039Z,16.16
2017-10-25T05:48:31.807Z,16.13
2017-10-25T05:49:31.140Z,16.17
2017-10-25T05:50:30.908Z,16.13
2017-10-25T05:51:30.888Z,16.12
2017-10-25T05:52:30.911Z,16.10
2017-10-25T05:53:30.865Z,16.09
2017-10-25T05:54:30.851Z,16.13
2017-10-25T05:55:30.863Z,16.05
2017-10-25T05:56:30.816Z,16.10
2017-10-25T05:57:30.799Z,16.16
2017-10-25T05:58:30.782Z,16.12
2017-10-25T05:59:30.806Z,16.10
2017-10-25T06:00:30.763Z,16.16
2017-10-25T06:02:30.728Z,16.21
2017-10-25T06:03:30.712Z,16.26
2017-10-25T06:04:30.725Z,16.21
2017-10-25T06:05:30.720Z,16.20
2017-10-25T06:06:30.664Z,16.20
2017-10-25T06:07:30.644Z,16.24
2017-10-25T06:08:30.641Z,16.17
2017-10-25T06:09:30.617Z,16.20
2017-10-25T06:10:30.653Z,16.10
2017-10-25T06:11:30.599Z,16.21
2017-10-25T06:12:30.579Z,16.20
2017-10-25T06:13:30.549Z,16.20
2017-10-25T06:14:30.534Z,16.09
2017-10-25T06:15:30.558Z,16.10
2017-10-25T06:16:30.505Z,16.08
2017-10-25T06:17:30.488Z,16.10
2017-10-25T06:18:30.513Z,16.04
2017-10-25T06:19:30.459Z,16.05
2017-10-25T06:20:30.442Z,16.05
2017-10-25T06:21:30.427Z,16.04
2017-10-25T06:22:30.413Z,16.02
2017-10-25T06:23:30.437Z,16.02
2017-10-25T06:24:30.380Z,16.02
2017-10-25T06:25:30.362Z,16.01
2017-10-25T06:26:30.354Z,16.08
2017-10-25T06:27:30.333Z,16.08
2017-10-25T06:28:30.361Z,16.04
2017-10-25T06:29:30.301Z,16.05
2017-10-25T06:30:30.286Z,16.05
2017-10-25T06:31:30.270Z,15.98
2017-10-25T06:32:30.343Z,15.98
2017-10-25T06:33:30.330Z,16.00
2017-10-25T06:34:30.227Z,16.04
2017-10-25T06:35:30.213Z,16.02
2017-10-25T06:36:30.188Z,16.04
2017-10-25T06:37:30.176Z,16.02
2017-10-25T06:38:30.205Z,16.10
2017-10-25T06:39:30.154Z,16.09
2017-10-25T06:40:30.138Z,16.13
2017-10-25T06:41:30.113Z,16.15
2017-10-25T06:42:30.099Z,16.10
2017-10-25T06:43:37.984Z,16.20
2017-10-25T06:44:39.966Z,16.09
2017-10-25T06:45:30.055Z,16.16
2017-10-25T06:46:30.051Z,16.13
2017-10-25T06:47:39.997Z,16.24
2017-10-25T06:48:30.003Z,16.13
2017-10-25T06:49:30.037Z,16.23
2017-10-25T06:50:29.971Z,16.17
2017-10-25T06:51:29.958Z,16.20
2017-10-25T06:52:29.945Z,16.28
2017-10-25T06:53:29.930Z,16.23
2017-10-25T06:54:29.952Z,16.23
2017-10-25T06:55:29.905Z,16.28
2017-10-25T06:56:29.886Z,16.23
2017-10-25T06:57:29.867Z,16.28
2017-10-25T06:58:29.846Z,16.26
2017-10-25T06:59:29.883Z,16.29
2017-10-25T07:00:29.815Z,16.38
2017-10-25T07:01:29.819Z,16.28
2017-10-25T07:02:29.791Z,16.31
2017-10-25T07:03:29.768Z,16.32
2017-10-25T07:04:29.798Z,16.29
2017-10-25T07:05:29.739Z,16.36
2017-10-25T07:06:29.729Z,16.35
2017-10-25T07:07:29.716Z,16.35
2017-10-25T07:08:29.691Z,16.29
2017-10-25T07:09:29.731Z,16.39
2017-10-25T07:10:29.670Z,16.36
2017-10-25T07:11:29.652Z,16.38
2017-10-25T07:12:29.631Z,16.35
2017-10-25T07:13:29.619Z,16.43
2017-10-25T07:14:29.642Z,16.46
2017-10-25T07:15:29.588Z,16.47
2017-10-25T07:16:29.581Z,16.38
2017-10-25T07:17:29.557Z,16.32
2017-10-25T07:18:29.555Z,16.36
2017-10-25T07:19:29.595Z,16.36
2017-10-25T07:20:29.515Z,16.33
2017-10-25T07:21:29.507Z,16.51
2017-10-25T07:22:29.485Z,16.64
2017-10-25T07:23:29.484Z,16.69
2017-10-25T07:24:29.491Z,16.83
2017-10-25T07:25:29.439Z,16.91
2017-10-25T07:26:29.418Z,17.06
2017-10-25T07:27:29.406Z,17.01
2017-10-25T07:28:29.435Z,17.05
2017-10-25T07:29:29.373Z,17.09
2017-10-25T07:30:29.367Z,17.24
2017-10-25T07:31:29.343Z,17.30
2017-10-25T07:32:29.329Z,17.29
2017-10-25T07:33:29.362Z,17.27
2017-10-25T07:34:29.304Z,17.34
2017-10-25T07:35:29.295Z,17.41
2017-10-25T07:36:29.297Z,17.36
2017-10-25T07:37:29.256Z,17.30
2017-10-25T07:38:29.292Z,17.36
2017-10-25T07:39:29.230Z,17.26
2017-10-25T07:40:29.216Z,17.29
2017-10-25T07:41:29.200Z,17.52
2017-10-25T07:42:29.184Z,17.60
2017-10-25T07:43:29.215Z,17.70
2017-10-25T07:44:29.163Z,17.70
2017-10-25T07:45:29.145Z,17.71
2017-10-25T07:46:29.129Z,17.78
2017-10-25T07:47:29.116Z,17.72
2017-10-25T07:48:29.138Z,17.63
2017-10-25T07:49:29.091Z,17.74
2017-10-25T07:50:29.071Z,17.76
2017-10-25T07:51:29.063Z,17.83
2017-10-25T07:52:29.044Z,17.95
2017-10-25T07:53:29.077Z,18.47
2017-10-25T07:54:39.053Z,18.77
2017-10-25T07:55:29.004Z,18.84
2017-10-25T07:56:39.586Z,19.11
2017-10-25T07:57:38.616Z,19.55
2017-10-25T07:58:28.998Z,19.37
2017-10-25T07:59:28.955Z,19.62
2017-10-25T08:00:28.941Z,19.70
2017-10-25T08:01:28.925Z,19.74
2017-10-25T08:02:28.910Z,19.96
2017-10-25T08:03:28.934Z,19.88
2017-10-25T08:04:28.889Z,19.96
2017-10-25T08:05:28.916Z,20.09
2017-10-25T08:06:28.860Z,19.95
2017-10-25T08:07:28.846Z,20.00
2017-10-25T08:08:28.832Z,19.52
2017-10-25T08:09:28.825Z,19.84
2017-10-25T08:10:28.862Z,20.02
2017-10-25T08:11:28.800Z,20.09
2017-10-25T08:12:28.780Z,20.48
2017-10-25T08:13:28.780Z,20.16
2017-10-25T08:14:28.763Z,20.22
2017-10-25T08:15:28.790Z,20.06
2017-10-25T08:16:28.772Z,20.19
2017-10-25T08:17:28.719Z,20.19
2017-10-25T08:18:28.722Z,20.40
2017-10-25T08:19:28.696Z,20.21
2017-10-25T08:20:28.696Z,20.47
2017-10-25T08:21:28.718Z,20.74
2017-10-25T08:22:28.663Z,20.70
2017-10-25T08:23:28.650Z,20.63
2017-10-25T08:24:28.647Z,20.48
2017-10-25T08:25:28.630Z,20.67
2017-10-25T08:26:28.648Z,20.87
2017-10-25T08:27:28.601Z,20.74
2017-10-25T08:28:28.629Z,21.03
2017-10-25T08:29:28.582Z,21.14
2017-10-25T08:30:28.568Z,21.24
2017-10-25T08:31:28.558Z,21.11
2017-10-25T08:32:28.545Z,21.24
2017-10-25T08:33:28.569Z,20.81
2017-10-25T08:34:28.524Z,20.96
2017-10-25T08:35:28.549Z,21.48
2017-10-25T08:36:28.506Z,21.85
2017-10-25T08:37:28.496Z,21.85
2017-10-25T08:38:28.484Z,22.07
2017-10-25T08:39:28.501Z,21.64
2017-10-25T08:40:28.462Z,21.37
2017-10-25T08:41:28.487Z,21.27
2017-10-25T08:42:28.441Z,21.22
2017-10-25T08:43:28.437Z,21.39
2017-10-25T08:44:28.415Z,21.64
2017-10-25T08:45:28.402Z,21.88
2017-10-25T08:46:28.430Z,21.83
2017-10-25T08:47:28.386Z,21.79
2017-10-25T08:48:28.382Z,21.58
2017-10-25T08:49:28.360Z,21.85
2017-10-25T08:50:28.390Z,22.50
2017-10-25T08:51:28.338Z,22.60
2017-10-25T08:52:28.328Z,22.36
2017-10-25T08:53:28.341Z,22.17
2017-10-25T08:54:28.312Z,22.69
2017-10-25T08:55:28.329Z,22.70
2017-10-25T08:56:28.337Z,22.55
2017-10-25T08:57:29.156Z,22.62
2017-10-25T08:58:28.268Z,21.57
2017-10-25T08:59:28.254Z,21.15
2017-10-25T09:00:28.250Z,21.32
2017-10-25T09:01:28.234Z,21.07
2017-10-25T09:02:28.276Z,20.63
2017-10-25T09:03:28.216Z,20.26
2017-10-25T09:04:38.184Z,20.18
2017-10-25T09:05:28.203Z,20.02
2017-10-25T09:06:28.187Z,19.89
2017-10-25T09:07:38.798Z,19.67
2017-10-25T09:08:28.173Z,19.56
2017-10-25T09:09:28.189Z,19.34
2017-10-25T09:10:28.136Z,19.31
2017-10-25T09:11:28.134Z,19.15
2017-10-25T09:12:28.114Z,19.11
2017-10-25T09:13:28.158Z,19.12
2017-10-25T09:14:28.091Z,19.00
2017-10-25T09:15:28.088Z,19.45
2017-10-25T09:16:28.106Z,19.47
2017-10-25T09:17:28.062Z,19.69
2017-10-25T09:18:28.048Z,19.58
2017-10-25T09:19:28.073Z,19.55
2017-10-25T09:20:28.021Z,19.22
2017-10-25T09:21:28.013Z,19.14
2017-10-25T09:22:28.037Z,19.02
2017-10-25T09:23:27.994Z,18.77
2017-10-25T09:24:27.984Z,18.68
2017-10-25T09:25:27.973Z,18.68
2017-10-25T09:26:27.960Z,18.70
2017-10-25T09:27:27.981Z,18.71
2017-10-25T09:28:27.937Z,18.68
2017-10-25T09:29:27.918Z,18.55
2017-10-25T09:30:27.947Z,18.58
2017-10-25T09:31:27.895Z,18.49
2017-10-25T09:32:27.904Z,18.49
2017-10-25T09:33:27.876Z,18.49
2017-10-25T09:34:27.895Z,18.33
2017-10-25T09:35:27.849Z,18.31
2017-10-25T09:36:27.869Z,18.63
2017-10-25T09:37:27.831Z,18.50
2017-10-25T09:38:27.851Z,18.45
2017-10-25T09:39:27.804Z,18.31
2017-10-25T09:40:27.787Z,18.22
2017-10-25T09:41:27.774Z,18.13
2017-10-25T09:42:27.762Z,18.10
2017-10-25T09:43:27.810Z,18.04
2017-10-25T09:44:27.739Z,18.13
2017-10-25T09:45:27.728Z,18.33
2017-10-25T09:46:27.714Z,18.26
2017-10-25T09:47:27.704Z,18.38
2017-10-25T09:48:27.725Z,18.40
2017-10-25T09:49:27.680Z,18.45
2017-10-25T09:50:27.662Z,18.28
2017-10-25T09:51:27.689Z,18.28
2017-10-25T09:52:27.635Z,18.10
2017-10-25T09:53:27.627Z,17.90
2017-10-25T09:54:27.615Z,17.79
2017-10-25T09:55:27.600Z,17.72
2017-10-25T09:56:27.628Z,17.76
2017-10-25T09:57:27.577Z,17.67
2017-10-25T09:58:27.561Z,17.67
2017-10-25T09:59:27.549Z,17.74
2017-10-25T10:00:27.572Z,17.72
2017-10-25T10:01:27.519Z,17.76
2017-10-25T10:02:27.509Z,17.89
2017-10-25T10:03:27.500Z,17.79
2017-10-25T10:04:27.480Z,17.79
2017-10-25T10:05:27.513Z,17.80
2017-10-25T10:06:27.454Z,17.65
2017-10-25T10:07:27.467Z,17.59
2017-10-25T10:08:27.438Z,17.59
2017-10-25T10:09:27.416Z,17.52
2017-10-25T10:10:27.448Z,17.46
2017-10-25T10:11:27.389Z,17.38
2017-10-25T10:12:27.374Z,17.51
2017-10-25T10:13:27.364Z,17.48
2017-10-25T10:14:27.349Z,17.48
2017-10-25T10:15:27.368Z,17.48
2017-10-25T10:16:27.333Z,17.46
2017-10-25T10:17:27.309Z,17.46
2017-10-25T10:18:27.334Z,17.46
2017-10-25T10:19:27.328Z,17.44
2017-10-25T10:20:27.277Z,17.54
2017-10-25T10:21:27.260Z,17.59
2017-10-25T10:22:27.247Z,17.57
2017-10-25T10:23:27.234Z,17.76
2017-10-25T10:24:27.265Z,17.82
2017-10-25T10:25:27.207Z,18.04
2017-10-25T10:26:27.190Z,18.08
2017-10-25T10:27:27.175Z,18.25
2017-10-25T10:28:27.161Z,18.34
2017-10-25T10:29:27.185Z,18.55
2017-10-25T10:30:27.172Z,18.45
2017-10-25T10:31:27.122Z,18.62
2017-10-25T10:32:27.108Z,18.83
2017-10-25T10:33:27.095Z,18.99
2017-10-25T10:34:27.080Z,18.99
2017-10-25T10:35:27.108Z,18.98
2017-10-25T10:36:27.091Z,18.75
2017-10-25T10:37:27.052Z,18.78
2017-10-25T10:38:27.036Z,18.63
2017-10-25T10:39:27.015Z,18.70
2017-10-25T10:40:27.010Z,18.63
2017-10-25T10:41:27.037Z,18.65
2017-10-25T10:42:26.978Z,18.55
2017-10-25T10:43:26.968Z,18.47
2017-10-25T10:44:26.964Z,18.52
2017-10-25T10:45:26.943Z,18.55
2017-10-25T10:46:26.972Z,18.50
2017-10-25T10:47:26.918Z,18.50
2017-10-25T10:48:26.903Z,18.56
2017-10-25T10:49:26.900Z,18.38
2017-10-25T10:50:26.878Z,18.38
2017-10-25T10:51:26.899Z,18.29
2017-10-25T10:52:26.854Z,18.25
2017-10-25T10:53:26.833Z,18.29
2017-10-25T10:54:26.862Z,18.33
2017-10-25T10:55:26.844Z,18.26
2017-10-25T10:56:26.841Z,18.28
2017-10-25T10:57:26.789Z,18.18
2017-10-25T10:58:26.774Z,18.13
2017-10-25T10:59:26.766Z,18.05
2017-10-25T11:00:26.754Z,18.04
2017-10-25T11:01:26.782Z,18.04
2017-10-25T11:02:26.722Z,18.05
2017-10-25T11:03:26.714Z,17.89
2017-10-25T11:04:26.696Z,17.94
2017-10-25T11:05:26.684Z,17.82
2017-10-25T11:06:26.721Z,17.71
2017-10-25T11:07:26.658Z,17.67
2017-10-25T11:08:26.658Z,17.56
2017-10-25T11:09:26.631Z,17.54
2017-10-25T11:10:26.618Z,17.57
2017-10-25T11:11:26.649Z,17.63
2017-10-25T11:12:26.594Z,17.48
2017-10-25T11:13:26.587Z,17.51
2017-10-25T11:14:26.567Z,17.49
2017-10-25T11:15:26.550Z,17.48
2017-10-25T11:16:26.580Z,17.38
2017-10-25T11:17:26.527Z,17.27
2017-10-25T11:18:26.514Z,17.27
2017-10-25T11:19:26.498Z,17.24
2017-10-25T11:20:26.515Z,17.22
2017-10-25T11:21:26.479Z,17.12
2017-10-25T11:22:26.466Z,17.12
2017-10-25T11:23:26.451Z,17.14
2017-10-25T11:24:26.428Z,17.12
2017-10-25T11:25:26.461Z,17.27
2017-10-25T11:26:26.404Z,17.27
2017-10-25T11:27:26.394Z,17.24
2017-10-25T11:28:26.376Z,17.15
2017-10-25T11:29:26.361Z,17.20
2017-10-25T11:30:26.379Z,17.14
2017-10-25T11:31:26.339Z,17.11
2017-10-25T11:32:26.321Z,17.27
2017-10-25T11:33:26.311Z,17.30
2017-10-25T11:34:26.300Z,17.24
2017-10-25T11:35:26.317Z,17.38
2017-10-25T11:36:26.307Z,17.45
2017-10-25T11:37:26.251Z,17.46
2017-10-25T11:38:26.247Z,17.45
2017-10-25T11:39:26.228Z,17.52
2017-10-25T11:40:26.251Z,17.45
2017-10-25T11:41:26.197Z,17.52
2017-10-25T11:42:26.182Z,17.59
2017-10-25T11:43:26.172Z,17.71
2017-10-25T11:44:26.207Z,17.54
2017-10-25T11:45:26.151Z,17.59
2017-10-25T11:46:26.129Z,17.65
2017-10-25T11:47:26.115Z,17.68
2017-10-25T11:48:26.105Z,17.76
2017-10-25T11:49:26.122Z,17.78
2017-10-25T11:50:26.076Z,17.87
2017-10-25T11:51:26.064Z,17.87
2017-10-25T11:52:26.047Z,17.83
2017-10-25T11:53:26.068Z,17.95
2017-10-25T11:54:26.023Z,18.00
2017-10-25T11:55:26.015Z,17.90
2017-10-25T11:56:26.041Z,17.65
2017-10-25T11:57:25.983Z,17.48
2017-10-25T11:58:25.966Z,17.54
2017-10-25T11:59:25.957Z,17.48
2017-10-25T12:00:25.977Z,17.29
2017-10-25T12:01:25.964Z,17.29
2017-10-25T12:02:25.913Z,17.34
2017-10-25T12:03:25.906Z,17.29
2017-10-25T12:04:25.888Z,17.38
2017-10-25T12:05:25.875Z,17.44
2017-10-25T12:06:25.907Z,17.36
2017-10-25T12:07:25.853Z,17.42
2017-10-25T12:08:25.880Z,17.46
2017-10-25T12:10:25.807Z,17.30
2017-10-25T12:11:25.876Z,17.31
2017-10-25T12:12:25.809Z,17.27
2017-10-25T12:13:25.776Z,17.27
2017-10-25T12:14:25.756Z,17.15
2017-10-25T12:15:25.749Z,17.08
2017-10-25T12:16:25.762Z,17.27
2017-10-25T12:17:25.710Z,17.19
2017-10-25T12:18:25.714Z,17.12
2017-10-25T12:19:25.721Z,17.14
2017-10-25T12:20:25.699Z,17.11
2017-10-25T12:21:25.664Z,17.06
2017-10-25T12:22:25.663Z,17.06
2017-10-25T12:23:25.648Z,17.12
2017-10-25T12:24:25.656Z,17.06
2017-10-25T12:25:25.655Z,17.14
2017-10-25T12:26:25.596Z,17.16
2017-10-25T12:27:25.579Z,17.09
2017-10-25T12:28:25.574Z,17.09
2017-10-25T12:29:25.552Z,17.01
2017-10-25T12:30:25.570Z,17.01
2017-10-25T12:31:25.530Z,17.04
2017-10-25T12:32:25.554Z,17.05
2017-10-25T12:33:25.498Z,17.11
2017-10-25T12:34:25.490Z,17.04
2017-10-25T12:35:25.468Z,17.11
2017-10-25T12:36:25.461Z,17.04
2017-10-25T12:37:25.476Z,17.04
2017-10-25T12:38:25.428Z,17.11
2017-10-25T12:39:25.415Z,17.12
2017-10-25T12:40:25.407Z,17.12
2017-10-25T12:41:25.393Z,17.16
2017-10-25T12:42:25.416Z,17.14
2017-10-25T12:43:25.362Z,17.04
2017-10-25T12:44:25.349Z,17.06
2017-10-25T12:45:25.355Z,17.05
2017-10-25T12:46:25.336Z,17.11
2017-10-25T12:47:25.352Z,17.11
2017-10-25T12:48:25.288Z,17.19
2017-10-25T12:49:25.274Z,17.30
2017-10-25T12:50:25.267Z,17.30
2017-10-25T12:51:25.255Z,17.24
2017-10-25T12:52:25.280Z,17.27
2017-10-25T12:53:25.221Z,17.27
2017-10-25T12:54:25.205Z,17.23